Airfield :
LOGIN :

Register | Disclaimer

   EN    FR    IT 

 










Legend :    VFR   Marginal VFR   IFR   Intensive IFR   Very Intensive IFR
Visi :
Ceiling :
>= 8 km
>= 3000ft
5 to 8 km
1000 to 3000 ft
1500m to 5 km
500 to 1000 ft
800 to 1500m
200 to 500 ft
< 800m
< 200 ft
Symbols :   Thunderstorms  Fog  Heavy snow  Heavy precipitations  Wind > 20 kt
SIGMETs :     Misc.  Thunderstorms  Icing  Turbulence  Mountain Waves  Volcanic Ashes







- Airport Elevation : 0 ft


ETEB - Ansbach Army Heliport

CURRENT METAR :
  • 221956Z AUTO 29003KT 9999 CLR 10/09 A3012 RMK AO2 SLP214 T01010089 $

EXPIRED METARs :
  • 221856Z AUTO 30004KT 9999 CLR 12/09 A3010 RMK AO2 SLP207 T01180086 $

TAF TAF ETEB
Valid from the 22 at 13:00 until the 23 at 19:00 UTC


221315Z 2213/2319 29012KT 9000 -SHRA SCT005 BKN020 QNH3001INS
BECMG 2215/2216 30012KT 9999 NSW SCT020 QNH3002INS
BECMG 2222/2223 30006KT 9999 SCT030 BKN050 QNH3007INS
BECMG 2300/2301 VRB06KT 9999 SCT040 QNH3003INS
TEMPO 2301/2307 VRB06KT 8000 BR TX17/2215Z TN07/2303Z
No reported NOTAMs for that airfield.



MET'MAP, your aeronautical weather chart ! - Copyright ORBIFLY December 2007 - Disclaimer

ORBIFLY MET'MAP TEAM :

Programming & Development : Alexandra Zaïnal
Concept & Development : Baudouin d'Aumeries
Co-Development & Prog : Marc-Olivier Méhu
Technical & hardware support : Manuel Goepfert

Contact : metmap@orbifly.com




SOURCES & CREDITS :

   NOAA